createdAt,value
2023-02-13T00:01:54.335Z,25.43
2023-02-13T00:04:20.891Z,22.10
2023-02-13T00:06:50.525Z,21.90
2023-02-13T00:09:17.260Z,24.33
2023-02-13T00:11:43.872Z,22.87
2023-02-13T00:14:10.658Z,20.03
2023-02-13T00:16:37.156Z,23.37
2023-02-13T00:19:04.064Z,24.77
2023-02-13T00:21:30.757Z,21.80
2023-02-13T00:23:57.300Z,24.03
2023-02-13T00:26:24.708Z,27.53
2023-02-13T00:28:51.363Z,24.47
2023-02-13T00:31:20.193Z,27.17
2023-02-13T00:33:47.252Z,24.33
2023-02-13T00:36:20.286Z,22.90
2023-02-13T00:38:47.389Z,23.40
2023-02-13T00:41:14.413Z,25.60
2023-02-13T00:43:40.868Z,24.77
2023-02-13T00:46:07.582Z,25.07
2023-02-13T00:48:35.133Z,20.70
2023-02-13T00:51:02.009Z,28.80
2023-02-13T00:53:28.603Z,30.73
2023-02-13T00:55:55.186Z,23.77
2023-02-13T00:58:22.169Z,23.40
2023-02-13T01:00:49.142Z,22.50
2023-02-13T01:03:16.643Z,30.97
2023-02-13T01:05:44.425Z,23.20
2023-02-13T01:08:12.202Z,26.30
2023-02-13T01:10:39.578Z,23.30
2023-02-13T01:13:06.484Z,26.27
2023-02-13T01:15:33.670Z,20.07
2023-02-13T01:18:00.957Z,24.73
2023-02-13T01:20:28.850Z,25.43
2023-02-13T01:22:56.050Z,23.73
2023-02-13T01:25:23.201Z,24.17
2023-02-13T01:27:50.011Z,26.37
2023-02-13T01:30:18.174Z,25.13
2023-02-13T01:32:46.211Z,25.50
2023-02-13T01:35:13.879Z,29.97
2023-02-13T01:37:40.975Z,21.30
2023-02-13T01:40:10.183Z,23.47
2023-02-13T01:42:36.938Z,26.33
2023-02-13T01:45:21.224Z,22.60
2023-02-13T01:47:51.175Z,24.77
2023-02-13T01:50:25.667Z,24.67
2023-02-13T01:53:29.201Z,24.43
2023-02-13T01:55:59.925Z,21.10
2023-02-13T01:58:31.263Z,22.73
2023-02-13T02:00:59.054Z,21.57
2023-02-13T02:03:39.280Z,23.60
2023-02-13T02:06:07.920Z,23.80
2023-02-13T02:08:34.717Z,20.70
2023-02-13T02:11:10.389Z,20.30
2023-02-13T02:13:37.599Z,22.80
2023-02-13T02:16:04.158Z,18.60
2023-02-13T02:18:30.649Z,25.20
2023-02-13T02:21:00.175Z,22.57
2023-02-13T02:23:56.053Z,19.93
2023-02-13T02:26:45.596Z,19.10
2023-02-13T02:29:23.607Z,15.57
2023-02-13T02:32:15.141Z,14.37
2023-02-13T02:35:29.459Z,15.50
2023-02-13T02:37:55.908Z,13.13
2023-02-13T02:40:40.574Z,13.73
2023-02-13T02:43:12.928Z,15.07
2023-02-13T02:45:50.859Z,12.97
2023-02-13T02:48:40.866Z,9.27
2023-02-13T02:51:14.216Z,11.57
2023-02-13T02:54:30.757Z,9.13
2023-02-13T02:57:03.402Z,8.80
2023-02-13T02:59:48.561Z,9.77
2023-02-13T03:02:34.740Z,7.17
2023-02-13T03:05:21.460Z,7.93
2023-02-13T03:07:47.998Z,9.27
2023-02-13T03:10:41.234Z,7.43
2023-02-13T03:13:21.648Z,6.57
2023-02-13T03:16:11.968Z,7.10
2023-02-13T03:18:59.521Z,6.73
2023-02-13T03:22:14.076Z,5.80
2023-02-13T03:24:50.955Z,7.03
2023-02-13T03:27:54.425Z,9.67
2023-02-13T03:30:56.309Z,5.30
2023-02-13T03:33:42.244Z,7.47
2023-02-13T03:36:48.313Z,6.87
2023-02-13T03:39:27.122Z,6.00
2023-02-13T03:42:38.468Z,7.10
2023-02-13T03:45:30.994Z,6.87
2023-02-13T03:47:59.206Z,5.13
2023-02-13T03:50:26.375Z,5.10
2023-02-13T03:53:06.978Z,4.60
2023-02-13T03:55:59.051Z,4.80
2023-02-13T03:58:55.056Z,4.83
2023-02-13T04:01:26.363Z,5.50
2023-02-13T04:03:59.387Z,4.50
2023-02-13T04:06:33.274Z,3.90
2023-02-13T04:08:59.831Z,4.27
2023-02-13T04:11:38.832Z,4.60
2023-02-13T04:14:16.830Z,6.87
2023-02-13T04:16:46.589Z,3.60
2023-02-13T04:19:13.564Z,6.00
2023-02-13T04:21:40.640Z,4.93
2023-02-13T04:24:07.722Z,4.77
2023-02-13T04:26:40.330Z,6.67
2023-02-13T04:29:06.876Z,4.50
2023-02-13T04:31:33.688Z,5.07
2023-02-13T04:34:00.262Z,4.47
2023-02-13T04:36:27.008Z,4.97
2023-02-13T04:38:53.608Z,4.40
2023-02-13T04:41:20.215Z,4.73
2023-02-13T04:43:46.714Z,4.83
2023-02-13T04:46:13.531Z,4.83
2023-02-13T04:48:40.071Z,5.57
2023-02-13T04:51:06.562Z,4.23
2023-02-13T04:53:33.125Z,5.70
2023-02-13T04:55:59.580Z,4.90
2023-02-13T04:58:26.390Z,4.70
2023-02-13T05:00:52.868Z,4.70
2023-02-13T05:03:19.453Z,4.43
2023-02-13T05:05:45.981Z,4.70
2023-02-13T05:08:12.571Z,4.33
2023-02-13T05:10:39.132Z,4.60
2023-02-13T05:13:05.714Z,5.33
2023-02-13T05:15:32.488Z,4.77
2023-02-13T05:17:59.449Z,4.17
2023-02-13T05:20:25.932Z,5.63
2023-02-13T05:23:12.622Z,6.40
2023-02-13T05:25:41.258Z,4.73
2023-02-13T05:28:27.011Z,6.13
2023-02-13T05:30:53.610Z,6.13
2023-02-13T05:33:20.184Z,6.00
2023-02-13T05:35:46.971Z,6.90
2023-02-13T05:38:13.457Z,6.73
2023-02-13T05:40:39.954Z,7.00
2023-02-13T05:43:06.589Z,5.67
2023-02-13T05:45:33.064Z,7.50
2023-02-13T05:47:59.746Z,6.27
2023-02-13T05:50:26.249Z,6.00
2023-02-13T05:52:52.753Z,6.67
2023-02-13T05:55:19.232Z,5.87
2023-02-13T05:57:45.709Z,5.67
2023-02-13T06:00:12.784Z,6.30
2023-02-13T06:02:39.546Z,6.07
2023-02-13T06:05:06.282Z,6.60
2023-02-13T06:07:33.223Z,6.47
2023-02-13T06:09:59.736Z,6.40
2023-02-13T06:12:26.394Z,6.27
2023-02-13T06:14:52.953Z,5.77
2023-02-13T06:17:19.478Z,7.30
2023-02-13T06:19:46.151Z,6.43
2023-02-13T06:22:12.595Z,6.90
2023-02-13T06:24:39.059Z,8.40
2023-02-13T06:27:05.549Z,6.37
2023-02-13T06:29:32.955Z,6.70
2023-02-13T06:31:59.722Z,8.37
2023-02-13T06:34:26.414Z,7.87
2023-02-13T06:36:52.996Z,9.67
2023-02-13T06:39:19.475Z,7.50
2023-02-13T06:41:45.934Z,8.53
2023-02-13T06:44:12.579Z,6.50
2023-02-13T06:46:39.124Z,8.70
2023-02-13T06:49:05.768Z,6.63
2023-02-13T06:51:32.228Z,8.13
2023-02-13T06:53:58.775Z,10.53
2023-02-13T06:56:26.390Z,10.47
2023-02-13T06:58:52.863Z,10.47
2023-02-13T07:01:19.901Z,8.60
2023-02-13T07:03:48.647Z,10.10
2023-02-13T07:06:21.547Z,8.73
2023-02-13T07:08:48.489Z,10.73
2023-02-13T07:11:23.334Z,9.87
2023-02-13T07:13:50.301Z,11.60
2023-02-13T07:16:17.181Z,9.23
2023-02-13T07:18:43.724Z,8.50
2023-02-13T07:21:10.332Z,10.47
2023-02-13T07:23:36.889Z,9.53
2023-02-13T07:26:03.980Z,8.70
2023-02-13T07:28:30.878Z,13.30
2023-02-13T07:30:57.897Z,15.37
2023-02-13T07:33:24.604Z,13.70
2023-02-13T07:35:52.348Z,8.50
2023-02-13T07:38:19.063Z,9.27
2023-02-13T07:40:45.941Z,9.20
2023-02-13T07:43:13.251Z,12.20
2023-02-13T07:45:39.794Z,9.70
2023-02-13T07:48:06.305Z,9.60
2023-02-13T07:50:33.019Z,9.80
2023-02-13T07:53:01.619Z,11.03
2023-02-13T07:55:29.181Z,10.13
2023-02-13T07:57:56.014Z,12.00
2023-02-13T08:00:23.122Z,9.10
2023-02-13T08:02:50.519Z,9.43
2023-02-13T08:05:17.104Z,10.53
2023-02-13T08:07:43.624Z,9.10
2023-02-13T08:10:31.777Z,10.40
2023-02-13T08:12:58.352Z,10.23
2023-02-13T08:15:24.931Z,11.70
2023-02-13T08:17:51.448Z,11.20
2023-02-13T08:20:18.062Z,14.60
2023-02-13T08:22:44.543Z,9.70
2023-02-13T08:25:11.046Z,8.73
2023-02-13T08:27:38.361Z,9.60
2023-02-13T08:30:06.406Z,10.07
2023-02-13T08:32:44.866Z,9.27
2023-02-13T08:35:18.487Z,11.33
2023-02-13T08:37:46.599Z,10.43
2023-02-13T08:40:14.632Z,9.03
2023-02-13T08:42:41.779Z,9.97
2023-02-13T08:45:10.515Z,9.40
2023-02-13T08:47:37.871Z,9.03
2023-02-13T08:50:04.777Z,11.87
2023-02-13T08:52:31.306Z,10.20
2023-02-13T08:54:57.823Z,11.63
2023-02-13T08:57:24.330Z,9.87
2023-02-13T08:59:50.806Z,9.23
2023-02-13T09:02:17.391Z,11.47
2023-02-13T09:04:43.916Z,10.30
2023-02-13T09:07:10.495Z,8.50
2023-02-13T09:09:37.056Z,8.97
2023-02-13T09:12:03.935Z,6.90
2023-02-13T09:14:30.640Z,7.80
2023-02-13T09:16:57.186Z,7.60
2023-02-13T09:19:23.844Z,7.10
2023-02-13T09:21:50.355Z,6.50
2023-02-13T09:24:16.816Z,6.23
2023-02-13T09:26:43.311Z,7.50
2023-02-13T09:29:09.918Z,8.03
2023-02-13T09:31:36.620Z,6.10
2023-02-13T09:34:03.142Z,8.53
2023-02-13T09:36:29.603Z,6.90
2023-02-13T09:38:57.439Z,5.00
2023-02-13T09:41:26.416Z,5.27
2023-02-13T09:44:02.971Z,5.93
2023-02-13T09:46:33.740Z,5.30
2023-02-13T09:49:03.206Z,4.83
2023-02-13T09:51:29.860Z,5.30
2023-02-13T09:54:02.692Z,4.77
2023-02-13T09:56:35.465Z,5.03
2023-02-13T09:59:06.929Z,4.07
2023-02-13T10:01:43.025Z,4.33
2023-02-13T10:04:47.328Z,4.30
2023-02-13T10:07:23.385Z,3.97
2023-02-13T10:10:18.085Z,5.20
2023-02-13T10:12:50.479Z,4.70
2023-02-13T10:15:41.922Z,4.57
2023-02-13T10:18:18.769Z,5.33
2023-02-13T10:20:48.754Z,4.90
2023-02-13T10:23:46.378Z,4.03
2023-02-13T10:26:24.308Z,3.60
2023-02-13T10:29:19.252Z,3.20
2023-02-13T10:31:47.090Z,3.60
2023-02-13T10:34:25.516Z,3.50
2023-02-13T10:36:52.194Z,4.87
2023-02-13T10:39:28.762Z,4.30
2023-02-13T10:42:17.281Z,3.40
2023-02-13T10:44:55.852Z,4.30
2023-02-13T10:47:45.927Z,4.23
2023-02-13T10:50:27.617Z,5.80
2023-02-13T10:53:06.493Z,5.17
2023-02-13T10:55:48.208Z,3.47
2023-02-13T10:58:30.391Z,3.93
2023-02-13T11:01:09.796Z,4.13
2023-02-13T11:03:36.599Z,3.70
2023-02-13T11:06:07.132Z,4.20
2023-02-13T11:08:40.621Z,5.07
2023-02-13T11:11:33.838Z,4.10
2023-02-13T11:14:23.913Z,3.90
2023-02-13T11:17:00.112Z,3.90
2023-02-13T11:19:33.437Z,3.87
2023-02-13T11:22:06.472Z,3.93
2023-02-13T11:24:33.655Z,4.73
2023-02-13T11:27:08.945Z,4.20
2023-02-13T11:29:37.355Z,3.60
2023-02-13T11:32:17.524Z,4.50
2023-02-13T11:34:45.408Z,4.13
2023-02-13T11:37:19.443Z,3.60
2023-02-13T11:39:51.113Z,3.90
2023-02-13T11:42:36.471Z,3.87
2023-02-13T11:45:23.843Z,4.10
2023-02-13T11:47:50.603Z,4.30
2023-02-13T11:50:37.726Z,5.33
2023-02-13T11:53:25.733Z,5.13
2023-02-13T11:56:21.762Z,4.40
2023-02-13T11:59:01.372Z,5.40
2023-02-13T12:01:29.132Z,4.27
2023-02-13T12:04:19.068Z,4.73
2023-02-13T12:06:59.984Z,5.17
2023-02-13T12:09:29.130Z,5.47
2023-02-13T12:12:02.656Z,6.00
2023-02-13T12:14:40.755Z,4.40
2023-02-13T12:17:14.390Z,4.73
2023-02-13T12:19:49.572Z,4.70
2023-02-13T12:22:37.557Z,4.70
2023-02-13T12:25:33.502Z,4.97
2023-02-13T12:28:11.953Z,4.90
2023-02-13T12:30:47.673Z,4.80
2023-02-13T12:33:40.300Z,4.70
2023-02-13T12:36:31.122Z,5.00
2023-02-13T12:39:18.587Z,5.50
2023-02-13T12:42:09.496Z,4.53
2023-02-13T12:45:00.465Z,5.80
2023-02-13T12:47:30.732Z,6.07
2023-02-13T12:50:09.340Z,5.20
2023-02-13T12:52:56.164Z,5.33
2023-02-13T12:56:01.219Z,5.60
2023-02-13T12:58:46.417Z,5.20
2023-02-13T13:01:25.068Z,5.13
2023-02-13T13:04:15.228Z,4.90
2023-02-13T13:06:42.040Z,5.77
2023-02-13T13:09:40.026Z,5.90
2023-02-13T13:12:12.566Z,6.03
2023-02-13T13:15:00.629Z,5.20
2023-02-13T13:17:30.180Z,5.40
2023-02-13T13:20:08.896Z,5.57
2023-02-13T13:22:48.053Z,5.80
2023-02-13T13:25:20.731Z,7.10
2023-02-13T13:27:50.536Z,7.37
2023-02-13T13:30:29.572Z,5.97
2023-02-13T13:33:19.445Z,5.97
2023-02-13T13:35:58.467Z,6.00
2023-02-13T13:38:43.637Z,7.07
2023-02-13T13:41:13.143Z,5.70
2023-02-13T13:43:58.761Z,7.00
2023-02-13T13:46:35.040Z,6.23
2023-02-13T13:49:21.569Z,6.60
2023-02-13T13:51:48.072Z,7.03
2023-02-13T13:54:14.520Z,9.43
2023-02-13T13:56:53.408Z,6.67
2023-02-13T13:59:51.663Z,6.87
2023-02-13T14:02:18.473Z,5.80
2023-02-13T14:05:04.014Z,5.77
2023-02-13T14:07:35.672Z,7.13
2023-02-13T14:10:02.657Z,6.33
2023-02-13T14:12:29.166Z,6.33
2023-02-13T14:14:56.980Z,6.47
2023-02-13T14:17:45.330Z,5.40
2023-02-13T14:20:33.120Z,9.33
2023-02-13T14:23:17.788Z,12.00
2023-02-13T14:25:44.374Z,6.20
2023-02-13T14:28:22.366Z,6.30
2023-02-13T14:30:51.286Z,7.13
2023-02-13T14:33:25.446Z,6.30
2023-02-13T14:36:04.763Z,5.80
2023-02-13T14:38:31.544Z,6.20
2023-02-13T14:40:59.097Z,6.20
2023-02-13T14:43:39.241Z,5.63
2023-02-13T14:46:33.367Z,6.93
2023-02-13T14:49:07.395Z,7.47
2023-02-13T14:51:38.900Z,6.17
2023-02-13T14:54:13.659Z,5.97
2023-02-13T14:56:40.244Z,6.13
2023-02-13T14:59:13.610Z,6.67
2023-02-13T15:01:45.227Z,6.10
2023-02-13T15:04:19.383Z,7.07
2023-02-13T15:06:46.827Z,6.20
2023-02-13T15:09:22.230Z,6.90
2023-02-13T15:11:49.361Z,6.27
2023-02-13T15:14:15.769Z,7.30
2023-02-13T15:16:42.619Z,6.67
2023-02-13T15:19:15.152Z,6.60
2023-02-13T15:21:48.785Z,6.30
2023-02-13T15:24:15.537Z,6.07
2023-02-13T15:26:42.162Z,6.63
2023-02-13T15:29:25.911Z,6.33
2023-02-13T15:31:53.476Z,6.83
2023-02-13T15:34:35.582Z,6.37
2023-02-13T15:37:03.011Z,6.60
2023-02-13T15:39:31.421Z,6.97
2023-02-13T15:42:02.597Z,8.37
2023-02-13T15:44:30.681Z,6.17
2023-02-13T15:47:08.382Z,6.97
2023-02-13T15:49:39.040Z,5.67
2023-02-13T15:52:15.138Z,7.73
2023-02-13T15:54:55.130Z,8.57
2023-02-13T15:57:23.309Z,7.47
2023-02-13T15:59:50.351Z,6.70
2023-02-13T16:02:46.199Z,8.00
2023-02-13T16:05:14.314Z,6.90
2023-02-13T16:07:54.911Z,6.00
2023-02-13T16:10:32.604Z,7.07
2023-02-13T16:13:01.813Z,7.53
2023-02-13T16:15:30.357Z,7.13
2023-02-13T16:17:57.138Z,7.57
2023-02-13T16:20:26.651Z,6.87
2023-02-13T16:22:59.426Z,6.20
2023-02-13T16:25:29.069Z,7.53
2023-02-13T16:27:57.888Z,6.80
2023-02-13T16:30:34.008Z,6.37
2023-02-13T16:33:13.037Z,7.93
2023-02-13T16:35:55.046Z,7.80
2023-02-13T16:38:32.381Z,8.87
2023-02-13T16:41:04.255Z,7.90
2023-02-13T16:43:37.988Z,7.77
2023-02-13T16:46:19.761Z,7.87
2023-02-13T16:49:01.156Z,7.80
2023-02-13T16:51:43.175Z,8.83
2023-02-13T16:54:25.064Z,11.20
2023-02-13T16:57:13.306Z,10.40
2023-02-13T16:59:49.336Z,10.77
2023-02-13T17:02:15.921Z,11.67
2023-02-13T17:04:44.464Z,9.00
2023-02-13T17:07:32.121Z,9.70
2023-02-13T17:10:05.866Z,9.90
2023-02-13T17:12:36.862Z,10.13
2023-02-13T17:15:04.206Z,10.60
2023-02-13T17:17:32.267Z,10.23
2023-02-13T17:19:59.590Z,9.40
2023-02-13T17:22:30.202Z,9.53
2023-02-13T17:24:58.004Z,9.57
2023-02-13T17:27:24.482Z,9.93
2023-02-13T17:29:51.033Z,11.27
2023-02-13T17:32:19.899Z,13.90
2023-02-13T17:34:46.705Z,12.50
2023-02-13T17:37:27.174Z,14.03
2023-02-13T17:39:54.372Z,13.10
2023-02-13T17:42:24.704Z,24.97
2023-02-13T17:44:51.314Z,14.97
2023-02-13T17:47:18.387Z,13.57
2023-02-13T17:49:45.092Z,14.53
2023-02-13T17:52:15.858Z,15.20
2023-02-13T17:54:43.953Z,14.17
2023-02-13T17:57:11.754Z,16.50
2023-02-13T17:59:38.287Z,18.07
2023-02-13T18:02:11.616Z,16.37
2023-02-13T18:04:38.130Z,15.53
2023-02-13T18:07:04.939Z,15.20
2023-02-13T18:09:31.521Z,16.57
2023-02-13T18:12:05.309Z,14.30
2023-02-13T18:14:32.849Z,18.00
2023-02-13T18:16:59.737Z,17.37
2023-02-13T18:19:27.174Z,16.43
2023-02-13T18:21:53.596Z,14.40
2023-02-13T18:24:20.124Z,20.40
2023-02-13T18:26:46.781Z,21.53
2023-02-13T18:29:13.313Z,23.97
2023-02-13T18:31:40.593Z,21.30
2023-02-13T18:34:07.313Z,18.67
2023-02-13T18:36:33.865Z,20.70
2023-02-13T18:39:00.463Z,23.00
2023-02-13T18:41:26.950Z,19.97
2023-02-13T18:43:57.243Z,16.37
2023-02-13T18:46:24.110Z,15.47
2023-02-13T18:48:50.665Z,14.93
2023-02-13T18:51:17.117Z,15.40
2023-02-13T18:53:43.598Z,15.60
2023-02-13T18:56:11.550Z,19.40
2023-02-13T18:58:38.318Z,19.70
2023-02-13T19:01:09.856Z,14.67
2023-02-13T19:03:40.125Z,16.00
2023-02-13T19:06:09.072Z,20.03
2023-02-13T19:08:36.164Z,18.87
2023-02-13T19:11:07.543Z,16.27
2023-02-13T19:13:34.065Z,15.93
2023-02-13T19:16:08.269Z,19.10
2023-02-13T19:18:42.834Z,18.17
2023-02-13T19:21:09.663Z,18.10
2023-02-13T19:23:36.919Z,19.70
2023-02-13T19:26:07.749Z,15.27
2023-02-13T19:28:34.631Z,18.20
2023-02-13T19:31:03.245Z,21.93
2023-02-13T19:33:30.128Z,17.77
2023-02-13T19:35:58.218Z,21.47
2023-02-13T19:38:24.756Z,20.20
2023-02-13T19:40:51.896Z,25.17
2023-02-13T19:43:18.353Z,19.33
2023-02-13T19:45:44.876Z,19.80
2023-02-13T19:48:11.363Z,20.03
2023-02-13T19:50:39.082Z,18.23
2023-02-13T19:53:07.556Z,20.20
2023-02-13T19:55:34.297Z,22.90
2023-02-13T19:58:00.762Z,19.40
2023-02-13T20:00:27.379Z,20.87
2023-02-13T20:02:55.084Z,22.70
2023-02-13T20:05:21.669Z,20.57
2023-02-13T20:07:48.165Z,20.30
2023-02-13T20:10:14.935Z,20.73
2023-02-13T20:12:41.447Z,19.20
2023-02-13T20:15:08.279Z,17.87
2023-02-13T20:17:38.071Z,21.00
2023-02-13T20:20:05.084Z,19.30
2023-02-13T20:22:31.667Z,18.40
2023-02-13T20:24:58.185Z,20.70
2023-02-13T20:27:24.676Z,20.40
2023-02-13T20:29:53.327Z,20.87
2023-02-13T20:32:25.593Z,18.10
2023-02-13T20:34:59.607Z,17.50
2023-02-13T20:37:26.443Z,19.83
2023-02-13T20:39:52.971Z,19.33
2023-02-13T20:42:19.674Z,19.77
2023-02-13T20:44:46.758Z,19.03
2023-02-13T20:47:13.298Z,18.00
2023-02-13T20:49:39.815Z,19.17
2023-02-13T20:52:06.323Z,16.30
2023-02-13T20:54:32.942Z,18.27
2023-02-13T20:56:59.567Z,19.17
2023-02-13T20:59:26.104Z,16.40
2023-02-13T21:01:52.579Z,15.70
2023-02-13T21:04:20.672Z,18.57
2023-02-13T21:06:48.334Z,20.77
2023-02-13T21:09:15.427Z,16.43
2023-02-13T21:11:43.673Z,21.13
2023-02-13T21:14:11.966Z,17.10
2023-02-13T21:16:40.009Z,22.23
2023-02-13T21:19:09.471Z,18.23
2023-02-13T21:21:37.247Z,24.93
2023-02-13T21:24:08.020Z,25.20
2023-02-13T21:26:35.198Z,16.60
2023-02-13T21:29:02.090Z,14.80
2023-02-13T21:31:32.111Z,16.50
2023-02-13T21:34:04.613Z,19.53
2023-02-13T21:36:32.515Z,20.57
2023-02-13T21:38:59.912Z,17.73
2023-02-13T21:41:26.508Z,19.50
2023-02-13T21:43:53.293Z,21.30
2023-02-13T21:46:25.163Z,18.73
2023-02-13T21:48:54.142Z,20.40
2023-02-13T21:51:21.409Z,17.90
2023-02-13T21:53:48.816Z,20.63
2023-02-13T21:56:17.734Z,17.23
2023-02-13T21:58:45.076Z,20.90
2023-02-13T22:01:32.079Z,28.53
2023-02-13T22:04:01.270Z,21.13
2023-02-13T22:06:29.694Z,23.97
2023-02-13T22:09:11.253Z,27.23
2023-02-13T22:11:38.619Z,27.03
2023-02-13T22:14:07.648Z,26.83
2023-02-13T22:16:36.556Z,29.33
2023-02-13T22:19:04.247Z,24.10
2023-02-13T22:21:31.891Z,26.57
2023-02-13T22:23:58.728Z,25.47
2023-02-13T22:26:29.640Z,30.50
2023-02-13T22:29:00.132Z,25.80
2023-02-13T22:31:26.790Z,22.83
2023-02-13T22:34:03.264Z,24.30
2023-02-13T22:36:35.082Z,27.00
2023-02-13T22:39:01.592Z,24.27
2023-02-13T22:41:28.484Z,27.97
2023-02-13T22:43:55.196Z,29.77
2023-02-13T22:46:26.906Z,29.80
2023-02-13T22:48:53.923Z,28.43
2023-02-13T22:51:26.817Z,24.40
2023-02-13T22:53:54.993Z,25.40
2023-02-13T22:56:22.553Z,26.13
2023-02-13T22:58:49.272Z,29.13
2023-02-13T23:01:19.646Z,23.93
2023-02-13T23:03:46.617Z,24.70
2023-02-13T23:06:14.150Z,21.83
2023-02-13T23:08:41.409Z,21.33
2023-02-13T23:11:32.231Z,21.90
2023-02-13T23:13:59.041Z,22.00
2023-02-13T23:16:26.162Z,20.00
2023-02-13T23:18:56.929Z,21.47
2023-02-13T23:21:24.753Z,20.97
2023-02-13T23:23:51.386Z,17.50
2023-02-13T23:26:18.387Z,20.60
2023-02-13T23:28:44.965Z,17.60
2023-02-13T23:31:11.626Z,18.73
2023-02-13T23:33:38.142Z,17.50
2023-02-13T23:36:05.016Z,20.53
2023-02-13T23:38:31.496Z,20.43
2023-02-13T23:41:06.374Z,15.60
2023-02-13T23:43:33.037Z,17.07
2023-02-13T23:45:59.573Z,17.00
2023-02-13T23:48:26.102Z,14.80
2023-02-13T23:50:53.182Z,19.47
2023-02-13T23:53:19.914Z,14.57
2023-02-13T23:55:46.396Z,16.00
2023-02-13T23:58:12.864Z,14.50
